Time;durP1;ratioP1;P1;durP2;ratioP2;P2;SDS_P1;SDS_P2;PMS_P1;PMS_P2;Temp;Humidity;BMP_temperature;BMP_pressure;BME280_temperature;BME280_humidity;BME280_pressure;Samples;Min_cycle;Max_cycle;Signal;HPM_P1;HPM_P2
2023/05/09 00:02:23;;;;;;;5.43;3.97;;;9.70;99.90;;;;;;5155494;27;20205;-86
2023/05/09 00:04:51;;;;;;;5.57;4.10;;;9.80;99.90;;;;;;5133420;27;20197;-86
2023/05/09 00:07:18;;;;;;;5.23;3.80;;;9.70;99.90;;;;;;5115581;28;20231;-85
2023/05/09 00:09:45;;;;;;;4.20;3.80;;;9.40;99.90;;;;;;5116557;28;20220;-85
2023/05/09 00:12:12;;;;;;;5.20;3.97;;;9.10;99.90;;;;;;5117043;28;20212;-85
2023/05/09 00:14:39;;;;;;;5.43;4.10;;;9.00;99.90;;;;;;5117958;28;20265;-86
2023/05/09 00:17:06;;;;;;;6.43;4.20;;;9.10;99.90;;;;;;5118030;27;20707;-85
2023/05/09 00:19:33;;;;;;;7.40;4.30;;;9.20;99.90;;;;;;5133690;27;20196;-85
2023/05/09 00:22:01;;;;;;;4.70;4.20;;;9.40;99.90;;;;;;5128892;27;20216;-86
2023/05/09 00:24:28;;;;;;;5.97;4.50;;;9.30;99.90;;;;;;5119229;27;20296;-85
2023/05/09 00:26:54;;;;;;;5.20;3.47;;;9.40;99.90;;;;;;5147318;27;20204;-86
2023/05/09 00:29:21;;;;;;;5.93;4.10;;;9.30;99.90;;;;;;5157510;27;20310;-85
2023/05/09 00:31:48;;;;;;;6.40;4.27;;;9.00;99.90;;;;;;5133267;27;20303;-85
2023/05/09 00:34:15;;;;;;;5.83;4.17;;;8.90;99.90;;;;;;5145634;27;20199;-86
2023/05/09 00:36:42;;;;;;;7.97;3.87;;;8.80;99.90;;;;;;5131240;27;20568;-86
2023/05/09 00:39:10;;;;;;;6.67;4.43;;;8.80;99.90;;;;;;5135799;27;20192;-86
2023/05/09 00:41:37;;;;;;;5.33;3.90;;;8.90;99.90;;;;;;5116329;28;20228;-86
2023/05/09 00:44:03;;;;;;;5.40;3.90;;;8.90;99.90;;;;;;5116306;28;20215;-86
2023/05/09 00:46:30;;;;;;;5.33;4.03;;;8.70;99.90;;;;;;5115969;28;20227;-84
2023/05/09 00:48:57;;;;;;;6.77;4.07;;;8.50;99.90;;;;;;5116520;28;20197;-84
2023/05/09 00:51:25;;;;;;;6.07;3.83;;;8.20;99.90;;;;;;5116485;28;20228;-85
2023/05/09 00:53:52;;;;;;;10.40;5.03;;;7.80;99.90;;;;;;5116618;28;20196;-85
2023/05/09 00:56:20;;;;;;;5.27;3.90;;;7.50;99.90;;;;;;5116166;28;20254;-86
2023/05/09 00:58:47;;;;;;;7.00;4.50;;;7.50;99.90;;;;;;5116257;28;20211;-86
2023/05/09 01:01:15;;;;;;;5.63;4.60;;;7.70;99.90;;;;;;5116536;28;20258;-86
2023/05/09 01:03:42;;;;;;;5.97;4.37;;;7.70;99.90;;;;;;5116700;28;20209;-86
2023/05/09 01:06:16;;;;;;;6.13;4.13;;;7.60;99.90;;;;;;5116289;28;20307;-86
2023/05/09 01:08:50;;;;;;;5.60;4.43;;;7.50;99.90;;;;;;5116727;28;20235;-85
2023/05/09 01:11:29;;;;;;;6.23;4.47;;;7.60;99.90;;;;;;5131152;27;20230;-86
2023/05/09 01:14:06;;;;;;;7.97;4.40;;;7.80;99.90;;;;;;5138550;27;20265;-86
2023/05/09 01:16:40;;;;;;;6.20;4.60;;;7.90;99.90;;;;;;5144742;27;20233;-86
2023/05/09 01:19:21;;;;;;;5.03;4.07;;;7.80;99.90;;;;;;5144903;27;20206;-85
2023/05/09 01:21:50;;;;;;;7.63;4.20;;;7.50;99.90;;;;;;5116002;28;20256;-84
2023/05/09 01:24:33;;;;;;;6.27;4.10;;;7.50;99.90;;;;;;5115717;28;20209;-86
2023/05/09 01:27:22;;;;;;;7.83;4.73;;;7.70;99.90;;;;;;5116478;28;20721;-85
2023/05/09 01:29:53;;;;;;;5.70;4.13;;;7.70;99.90;;;;;;5123082;27;20197;-85
2023/05/09 01:32:24;;;;;;;6.13;4.50;;;7.30;99.90;;;;;;5119341;27;20672;-85
2023/05/09 01:34:54;;;;;;;5.43;4.10;;;7.20;99.90;;;;;;5129757;27;20283;-85
2023/05/09 01:37:25;;;;;;;6.80;4.83;;;7.20;99.90;;;;;;5119716;27;20197;-85
2023/05/09 01:39:55;;;;;;;9.37;5.03;;;7.40;99.90;;;;;;5117442;27;20217;-85
2023/05/09 01:42:25;;;;;;;8.13;4.70;;;7.50;99.90;;;;;;5114949;28;20420;-86
2023/05/09 01:44:54;;;;;;;6.47;4.77;;;7.50;99.90;;;;;;5125058;27;20200;-86
2023/05/09 01:47:21;;;;;;;6.13;4.67;;;7.70;99.90;;;;;;5116377;27;20220;-86
2023/05/09 01:49:49;;;;;;;7.20;4.63;;;7.70;99.90;;;;;;5118130;27;20244;-86
2023/05/09 01:52:18;;;;;;;7.27;4.80;;;7.60;99.90;;;;;;5115218;28;20201;-86
2023/05/09 01:54:46;;;;;;;6.77;4.63;;;7.50;99.90;;;;;;5118241;27;20279;-85
2023/05/09 01:57:14;;;;;;;5.50;4.47;;;7.60;99.90;;;;;;5144701;27;20257;-86
2023/05/09 01:59:44;;;;;;;7.70;4.90;;;7.70;99.90;;;;;;5155459;27;20209;-85
2023/05/09 02:02:12;;;;;;;5.60;4.70;;;7.80;99.90;;;;;;5121635;27;20200;-85
2023/05/09 02:04:41;;;;;;;7.77;4.93;;;7.90;99.90;;;;;;5132774;27;20198;-85
2023/05/09 02:07:08;;;;;;;5.37;4.17;;;7.50;99.90;;;;;;5113242;28;20225;-85
2023/05/09 02:09:35;;;;;;;6.07;4.10;;;7.40;99.90;;;;;;5114393;28;20203;-85
2023/05/09 02:12:03;;;;;;;5.63;4.53;;;7.30;99.90;;;;;;5114289;28;20577;-86
2023/05/09 02:14:30;;;;;;;7.17;5.07;;;7.20;99.90;;;;;;5115134;28;20576;-85
2023/05/09 02:16:57;;;;;;;5.97;4.40;;;7.20;99.90;;;;;;5114480;28;20197;-86
2023/05/09 02:19:25;;;;;;;8.47;5.13;;;7.10;99.90;;;;;;5114505;28;20209;-85
2023/05/09 02:21:52;;;;;;;5.57;4.20;;;6.90;99.90;;;;;;5114282;28;20221;-85
2023/05/09 02:24:19;;;;;;;6.93;4.60;;;7.10;99.90;;;;;;5114721;28;20602;-86
2023/05/09 02:26:46;;;;;;;8.33;4.80;;;7.10;99.90;;;;;;5115004;28;20229;-86
2023/05/09 02:29:13;;;;;;;7.43;4.60;;;7.00;99.90;;;;;;5114834;28;20196;-85
2023/05/09 02:31:40;;;;;;;7.10;4.97;;;7.10;99.90;;;;;;5114237;28;20594;-85
2023/05/09 02:34:09;;;;;;;7.47;4.73;;;7.20;99.90;;;;;;5114626;28;20228;-86
2023/05/09 02:36:38;;;;;;;6.90;4.97;;;7.40;99.90;;;;;;5114166;28;20266;-86
2023/05/09 02:39:06;;;;;;;7.13;5.10;;;7.30;99.90;;;;;;5114778;28;20200;-85
2023/05/09 02:41:34;;;;;;;5.73;4.97;;;7.40;99.90;;;;;;5114576;28;20662;-85
2023/05/09 02:44:02;;;;;;;5.83;4.43;;;7.30;99.90;;;;;;5121558;27;20196;-85
2023/05/09 02:46:29;;;;;;;6.00;4.60;;;7.40;99.90;;;;;;5145086;27;20216;-86
2023/05/09 02:48:56;;;;;;;6.93;4.67;;;7.30;99.90;;;;;;5137125;27;20672;-84
2023/05/09 02:51:23;;;;;;;5.80;4.50;;;7.40;99.90;;;;;;5116733;28;20323;-84
2023/05/09 02:53:51;;;;;;;7.00;5.20;;;7.40;99.90;;;;;;5113700;28;20655;-84
2023/05/09 02:56:18;;;;;;;6.97;5.00;;;7.30;99.90;;;;;;5113199;28;20221;-86
2023/05/09 02:58:49;;;;;;;6.57;4.40;;;7.30;99.90;;;;;;5113472;28;20200;-87
2023/05/09 03:01:16;;;;;;;5.70;4.73;;;7.30;99.90;;;;;;5113120;28;20228;-89
2023/05/09 03:03:43;;;;;;;7.57;4.90;;;7.40;99.90;;;;;;5112412;28;20200;-85
2023/05/09 03:06:10;;;;;;;7.17;4.90;;;7.20;99.90;;;;;;5112758;28;20606;-86
2023/05/09 03:08:37;;;;;;;7.60;4.60;;;6.90;99.90;;;;;;5112691;28;20213;-85
2023/05/09 03:11:05;;;;;;;6.83;5.17;;;6.50;99.90;;;;;;5112516;28;20234;-86
2023/05/09 03:13:32;;;;;;;5.90;5.10;;;6.50;99.90;;;;;;5113210;28;20197;-85
2023/05/09 03:16:00;;;;;;;7.03;4.80;;;6.50;99.90;;;;;;5112799;28;20225;-84
2023/05/09 03:18:27;;;;;;;7.07;4.87;;;6.60;99.90;;;;;;5129229;28;20200;-87
2023/05/09 03:20:53;;;;;;;10.73;5.70;;;6.50;99.90;;;;;;5120408;28;20260;-85
2023/05/09 03:23:23;;;;;;;6.83;5.67;;;6.40;99.90;;;;;;5129683;28;20281;-86
2023/05/09 03:25:50;;;;;;;8.27;4.93;;;6.40;99.90;;;;;;5133421;28;20204;-86
2023/05/09 03:28:18;;;;;;;7.93;4.60;;;6.40;99.90;;;;;;5132907;28;20219;-85
2023/05/09 03:30:48;;;;;;;7.53;5.53;;;6.10;99.90;;;;;;5133259;27;20216;-86
2023/05/09 03:33:16;;;;;;;11.33;6.87;;;6.20;99.90;;;;;;5133551;28;20206;-86
2023/05/09 03:35:43;;;;;;;10.60;5.70;;;6.20;99.90;;;;;;5133597;28;20220;-86
2023/05/09 03:38:10;;;;;;;8.27;5.87;;;6.40;99.90;;;;;;5133747;28;20204;-86
2023/05/09 03:40:38;;;;;;;7.33;5.80;;;6.40;99.90;;;;;;5132520;28;20227;-85
2023/05/09 03:43:10;;;;;;;9.07;6.07;;;6.40;99.90;;;;;;5132981;28;20680;-82
2023/05/09 03:45:38;;;;;;;10.30;6.00;;;6.40;99.90;;;;;;5134000;28;20200;-85
2023/05/09 03:48:08;;;;;;;7.13;5.70;;;6.30;99.90;;;;;;5134464;28;20251;-84
2023/05/09 03:50:40;;;;;;;10.17;6.20;;;6.50;99.90;;;;;;5134285;28;20216;-86
2023/05/09 03:53:10;;;;;;;7.93;6.63;;;6.70;99.90;;;;;;5135067;28;20222;-86
2023/05/09 03:55:44;;;;;;;8.77;6.10;;;7.00;99.90;;;;;;5134407;28;20188;-86
2023/05/09 03:58:12;;;;;;;9.07;6.20;;;7.00;99.90;;;;;;5135258;28;20236;-86
2023/05/09 04:00:48;;;;;;;8.57;5.63;;;7.30;99.90;;;;;;5134823;28;20220;-85
2023/05/09 04:03:15;;;;;;;8.83;5.60;;;7.50;99.90;;;;;;5135221;28;20253;-86
2023/05/09 04:05:45;;;;;;;8.47;6.33;;;8.00;99.90;;;;;;5134941;28;20211;-86
2023/05/09 04:08:14;;;;;;;8.67;5.80;;;8.40;99.90;;;;;;5134533;28;20766;-86
2023/05/09 04:10:41;;;;;;;7.97;5.43;;;8.10;99.90;;;;;;5133999;28;20248;-86
2023/05/09 04:13:08;;;;;;;10.43;6.73;;;7.60;99.90;;;;;;5134948;28;20640;-86
2023/05/09 04:15:40;;;;;;;13.70;7.03;;;7.50;99.90;;;;;;5135852;27;20690;-86
2023/05/09 04:18:08;;;;;;;10.27;6.70;;;7.40;99.90;;;;;;5137525;27;20192;-86
2023/05/09 04:20:40;;;;;;;11.47;6.70;;;7.40;99.90;;;;;;5137656;27;20332;-85
2023/05/09 04:23:33;;;;;;;10.73;7.07;;;7.40;99.90;;;;;;5137961;27;20291;-86
2023/05/09 04:26:11;;;;;;;10.00;6.40;;;8.00;99.90;;;;;;5137847;27;20204;-87
2023/05/09 04:28:38;;;;;;;10.67;7.00;;;8.10;99.90;;;;;;5137060;27;20220;-86
2023/05/09 04:31:08;;;;;;;9.43;7.30;;;8.00;99.90;;;;;;5137523;27;20220;-86
2023/05/09 04:33:39;;;;;;;10.90;7.10;;;8.10;99.90;;;;;;5141003;27;20201;-85
2023/05/09 04:36:11;;;;;;;11.80;7.20;;;8.10;99.90;;;;;;5141116;27;20193;-86
2023/05/09 04:38:41;;;;;;;15.77;7.43;;;8.30;99.90;;;;;;5136665;27;20192;-85
2023/05/09 04:44:14;;;;;;;14.37;7.40;;;8.90;99.90;;;;;;5136387;27;20698;-85
2023/05/09 04:46:42;;;;;;;15.80;7.03;;;8.70;99.90;;;;;;5136757;27;20585;-85
2023/05/09 04:49:10;;;;;;;12.27;7.70;;;9.40;99.90;;;;;;5136757;27;20200;-85
2023/05/09 04:51:44;;;;;;;12.30;7.73;;;9.60;99.90;;;;;;5136900;27;20269;-85
2023/05/09 04:54:11;;;;;;;10.60;7.23;;;8.90;99.90;;;;;;5137628;27;20229;-86
2023/05/09 04:57:43;;;;;;;10.00;6.93;;;9.00;99.90;;;;;;5129145;27;20716;-85
2023/05/09 05:00:46;;;;;;;11.67;7.40;;;10.10;99.90;;;;;;5011232;28;20794;-87
2023/05/09 05:14:43;;;;;;;11.53;7.13;;;10.90;99.90;;;;;;5061655;28;20221;-86
2023/05/09 05:18:02;;;;;;;10.50;7.50;;;10.20;99.90;;;;;;5118348;28;20288;-87
2023/05/09 05:24:52;;;;;;;10.73;7.60;;;10.30;99.90;;;;;;5066052;28;20206;-87
2023/05/09 05:37:09;;;;;;;13.07;8.30;;;10.60;99.90;;;;;;5071322;28;20697;-88
2023/05/09 05:40:13;;;;;;;13.53;8.10;;;10.80;99.90;;;;;;5077214;28;20586;-86
2023/05/09 05:43:54;;;;;;;11.27;7.73;;;10.90;99.90;;;;;;5073769;28;20205;-87
2023/05/09 05:47:09;;;;;;;10.80;7.53;;;11.80;99.90;;;;;;5060523;28;20210;-86
2023/05/09 05:50:03;;;;;;;10.77;7.27;;;11.40;99.90;;;;;;5054659;28;20206;-87
2023/05/09 05:53:24;;;;;;;9.40;7.30;;;11.50;99.90;;;;;;5059428;28;20180;-86
2023/05/09 05:56:44;;;;;;;9.63;7.17;;;11.90;99.90;;;;;;4977763;28;20354;-87
2023/05/09 06:02:17;;;;;;;10.13;6.83;;;12.00;99.90;;;;;;5124296;27;20585;-87
2023/05/09 06:05:04;;;;;;;12.30;7.57;;;11.80;99.90;;;;;;5134839;27;20201;-86
2023/05/09 06:08:11;;;;;;;10.33;7.47;;;12.00;99.90;;;;;;5116155;28;20252;-87
2023/05/09 06:11:00;;;;;;;12.40;8.13;;;12.20;99.90;;;;;;5116425;28;20244;-87
2023/05/09 06:14:08;;;;;;;11.87;7.93;;;12.30;99.90;;;;;;5115813;28;20295;-87
2023/05/09 06:17:20;;;;;;;11.53;8.50;;;12.50;99.90;;;;;;5116671;28;20205;-87
2023/05/09 06:20:08;;;;;;;11.97;7.60;;;12.80;99.90;;;;;;5098880;28;20204;-87
2023/05/09 06:23:20;;;;;;;11.20;7.30;;;12.80;99.90;;;;;;5116829;28;20209;-87
2023/05/09 06:25:50;;;;;;;12.03;7.07;;;12.80;99.90;;;;;;5116259;28;20262;-86
2023/05/09 06:48:54;;;;;;;10.07;7.13;;;14.00;99.90;;;;;;5028684;28;20740;-86
2023/05/09 06:52:04;;;;;;;10.07;6.30;;;14.60;99.90;;;;;;5075583;28;20222;-87
2023/05/09 06:58:22;;;;;;;;;;;;;;;;;;;;;
2023/05/09 07:00:51;;;;;;;7.50;6.05;;;14.90;99.90;;;;;;5111983;28;20229;-87
2023/05/09 07:03:18;;;;;;;9.13;6.03;;;15.80;99.90;;;;;;5113117;28;20261;-87
2023/05/09 07:05:44;;;;;;;7.47;5.93;;;15.40;99.90;;;;;;5113008;28;20212;-86
2023/05/09 07:08:11;;;;;;;10.13;7.47;;;15.40;99.90;;;;;;5113071;28;20303;-86
2023/05/09 07:10:38;;;;;;;9.38;6.22;;;16.00;99.90;;;;;;5112445;28;20221;-86
2023/05/09 07:13:06;;;;;;;10.35;7.07;;;16.00;99.90;;;;;;5113166;28;20219;-87
2023/05/09 07:15:32;;;;;;;8.73;5.85;;;15.70;99.90;;;;;;5112690;28;20683;-87
2023/05/09 07:18:00;;;;;;;7.75;5.82;;;15.70;99.90;;;;;;5112818;28;20205;-87
2023/05/09 07:20:27;;;;;;;6.45;5.10;;;15.90;99.90;;;;;;5112412;28;20225;-86
2023/05/09 07:22:54;;;;;;;6.63;4.32;;;16.00;99.90;;;;;;5112905;28;20582;-87
2023/05/09 07:25:21;;;;;;;5.88;4.65;;;16.20;99.90;;;;;;5112640;28;20213;-86
2023/05/09 07:27:47;;;;;;;5.97;3.92;;;16.40;99.90;;;;;;5134338;27;20202;-88
2023/05/09 07:30:15;;;;;;;5.13;4.25;;;16.60;99.90;;;;;;5140535;27;20216;-87
2023/05/09 07:32:41;;;;;;;5.65;4.35;;;16.60;99.90;;;;;;5127842;28;20201;-86
2023/05/09 07:35:10;;;;;;;4.55;4.15;;;16.60;99.90;;;;;;5112676;28;20592;-87
2023/05/09 07:37:36;;;;;;;6.97;5.18;;;16.80;99.90;;;;;;5111302;28;20211;-86
2023/05/09 07:40:04;;;;;;;4.90;4.30;;;16.60;99.90;;;;;;5110836;28;20672;-85
2023/05/09 07:42:32;;;;;;;6.15;4.25;;;16.70;99.90;;;;;;5112919;28;20644;-85
2023/05/09 07:45:04;;;;;;;4.82;4.00;;;17.00;99.90;;;;;;5112368;28;20219;-85
2023/05/09 07:47:31;;;;;;;6.13;4.00;;;17.20;99.90;;;;;;5113007;28;20274;-85
2023/05/09 07:49:58;;;;;;;6.63;4.53;;;17.20;99.90;;;;;;5113284;28;20233;-86
2023/05/09 07:52:26;;;;;;;4.57;3.85;;;17.30;99.90;;;;;;5115245;28;20703;-86
2023/05/09 07:54:54;;;;;;;6.00;4.45;;;17.40;99.90;;;;;;5118425;27;20193;-86
2023/05/09 07:57:21;;;;;;;4.78;4.28;;;17.30;99.90;;;;;;5122754;27;20614;-86
2023/05/09 07:59:48;;;;;;;5.30;3.80;;;17.40;99.90;;;;;;5126482;27;20253;-86
2023/05/09 08:02:14;;;;;;;4.88;4.00;;;17.60;99.90;;;;;;5133110;27;20209;-85
2023/05/09 08:04:41;;;;;;;5.85;4.30;;;17.60;99.90;;;;;;5120734;27;20201;-87
2023/05/09 08:07:08;;;;;;;5.90;4.20;;;17.70;99.90;;;;;;5149811;27;20226;-87
2023/05/09 08:09:36;;;;;;;4.85;4.00;;;17.70;99.90;;;;;;5172959;27;20230;-85
2023/05/09 08:12:03;;;;;;;4.60;4.20;;;17.80;99.90;;;;;;5146921;27;20624;-85
2023/05/09 08:15:09;;;;;;;11.10;4.57;;;17.80;99.90;;;;;;5145394;27;20200;-86
2023/05/09 08:17:35;;;;;;;6.00;4.55;;;17.80;99.90;;;;;;5122079;28;20208;-86
2023/05/09 08:20:04;;;;;;;4.32;3.92;;;18.00;99.90;;;;;;5121189;28;20242;-86
2023/05/09 08:22:31;;;;;;;7.10;4.35;;;18.00;99.90;;;;;;5123857;28;20744;-86
2023/05/09 08:24:59;;;;;;;6.53;4.63;;;18.10;99.90;;;;;;5122405;28;20204;-86
2023/05/09 08:27:26;;;;;;;5.30;4.25;;;18.20;99.90;;;;;;5127771;28;20211;-86
2023/05/09 08:29:54;;;;;;;6.43;4.75;;;18.30;99.90;;;;;;5120050;28;20618;-86
2023/05/09 08:32:21;;;;;;;5.60;4.90;;;18.40;99.90;;;;;;5115746;28;20464;-85
2023/05/09 08:34:54;;;;;;;6.78;4.93;;;18.30;99.90;;;;;;5115872;28;20221;-85
2023/05/09 08:37:20;;;;;;;5.18;4.68;;;18.50;99.90;;;;;;5116177;28;20201;-86
2023/05/09 08:39:47;;;;;;;4.70;4.20;;;18.60;1.00;;;;;;5116083;28;20454;-84
2023/05/09 08:42:19;;;;;;;7.07;4.55;;;18.70;1.00;;;;;;5115915;28;20204;-86
2023/05/09 08:44:48;;;;;;;4.70;4.30;;;18.80;1.00;;;;;;5125714;28;20209;-85
2023/05/09 08:47:16;;;;;;;4.30;3.90;;;18.80;1.00;;;;;;5134104;28;20256;-85
2023/05/09 08:49:44;;;;;;;7.40;4.32;;;19.30;1.00;;;;;;5138387;28;20227;-86
2023/05/09 08:52:11;;;;;;;5.63;4.35;;;19.10;1.00;;;;;;5138447;28;20201;-85
2023/05/09 08:54:38;;;;;;;5.63;4.47;;;19.70;1.00;;;;;;5138026;28;20185;-85
2023/05/09 08:57:05;;;;;;;5.82;4.18;;;19.60;99.90;;;;;;5162080;27;20180;-85
2023/05/09 08:59:36;;;;;;;6.55;4.40;;;20.00;99.90;;;;;;5178522;27;20190;-86
2023/05/09 09:02:06;;;;;;;6.45;4.57;;;19.60;1.00;;;;;;5152792;27;20215;-86
2023/05/09 09:04:33;;;;;;;6.07;5.22;;;19.60;1.00;;;;;;5148313;27;20196;-84
2023/05/09 09:07:00;;;;;;;7.75;6.03;;;19.60;1.00;;;;;;5133331;27;20655;-86
2023/05/09 09:09:28;;;;;;;11.93;5.15;;;19.60;99.90;;;;;;5145657;27;20222;-86
2023/05/09 09:11:55;;;;;;;5.55;4.95;;;19.60;1.00;;;;;;5152236;27;20231;-85
2023/05/09 09:14:25;;;;;;;5.50;4.95;;;20.00;1.00;;;;;;5154476;27;20200;-86
2023/05/09 09:16:55;;;;;;;6.10;5.50;;;20.10;99.90;;;;;;5151713;27;20239;-87
2023/05/09 09:19:27;;;;;;;6.00;5.30;;;20.40;99.90;;;;;;5162570;27;20226;-85
2023/05/09 09:21:58;;;;;;;10.52;5.15;;;20.30;1.00;;;;;;5153517;27;20217;-86
2023/05/09 09:24:25;;;;;;;5.97;5.15;;;21.00;1.00;;;;;;5139481;27;20211;-85
2023/05/09 09:26:52;;;;;;;5.50;4.35;;;21.80;1.00;;;;;;5139161;27;20208;-85
2023/05/09 09:29:21;;;;;;;6.13;4.72;;;22.10;99.90;;;;;;5138945;27;20238;-85
2023/05/09 09:31:54;;;;;;;5.22;4.72;;;21.80;1.00;;;;;;5139797;27;20332;-85
2023/05/09 09:34:22;;;;;;;4.80;4.40;;;22.20;1.00;;;;;;5143900;27;20251;-86
2023/05/09 09:36:49;;;;;;;5.30;4.45;;;22.70;1.00;;;;;;5139598;27;20200;-86
2023/05/09 09:39:16;;;;;;;7.80;4.60;;;22.30;1.00;;;;;;5139572;27;20203;-86
2023/05/09 09:41:44;;;;;;;4.38;3.95;;;21.80;1.00;;;;;;5136526;27;20208;-87
2023/05/09 09:44:13;;;;;;;4.43;3.92;;;22.30;1.00;;;;;;5136981;27;20261;-85
2023/05/09 09:46:44;;;;;;;6.85;4.50;;;22.70;1.00;;;;;;5139708;27;20260;-86
2023/05/09 09:49:13;;;;;;;4.82;4.32;;;22.20;99.90;;;;;;5136636;27;20234;-86
2023/05/09 09:51:40;;;;;;;5.47;4.63;;;21.90;99.90;;;;;;5135306;27;20234;-88
2023/05/09 09:54:08;;;;;;;4.50;4.10;;;22.30;99.90;;;;;;5135706;27;20717;-86
2023/05/09 09:56:42;;;;;;;5.45;4.18;;;21.90;1.00;;;;;;5135236;27;20196;-87
2023/05/09 09:59:11;;;;;;;5.63;4.70;;;22.40;1.00;;;;;;5136333;27;20192;-87
2023/05/09 10:01:54;;;;;;;5.72;4.43;;;23.30;1.00;;;;;;5136132;27;20224;-87
2023/05/09 10:04:22;;;;;;;4.38;3.90;;;22.70;1.00;;;;;;5135607;27;20192;-86
2023/05/09 10:06:53;;;;;;;4.97;3.78;;;22.90;1.00;;;;;;5135412;27;20287;-86
2023/05/09 10:09:21;;;;;;;5.57;4.60;;;24.10;1.00;;;;;;5134986;27;20601;-86
2023/05/09 10:11:50;;;;;;;5.43;4.75;;;23.10;1.00;;;;;;5135007;27;20220;-86
2023/05/09 10:14:19;;;;;;;4.78;4.03;;;23.20;99.90;;;;;;5134607;27;20207;-86
2023/05/09 10:16:47;;;;;;;4.75;4.30;;;23.30;99.90;;;;;;5135303;27;20208;-86
2023/05/09 10:19:18;;;;;;;5.50;4.55;;;22.80;99.90;;;;;;5135960;27;20203;-86
2023/05/09 10:21:50;;;;;;;6.00;3.97;;;22.80;18.20;;;;;;5136714;27;20224;-86
2023/05/09 10:24:22;;;;;;;4.40;3.85;;;23.30;99.90;;;;;;5137241;27;20731;-86
2023/05/09 10:26:51;;;;;;;4.60;4.10;;;23.40;1.00;;;;;;5136445;27;20196;-86
2023/05/09 10:29:21;;;;;;;5.88;3.83;;;23.70;1.00;;;;;;5136012;27;20274;-87
2023/05/09 10:31:51;;;;;;;4.47;4.07;;;23.90;1.00;;;;;;5135828;27;20230;-86
2023/05/09 10:34:19;;;;;;;5.07;3.70;;;24.30;1.00;;;;;;5135343;27;20234;-87
2023/05/09 10:36:49;;;;;;;4.35;3.95;;;24.30;1.00;;;;;;5135494;27;20204;-86
2023/05/09 10:39:17;;;;;;;4.70;4.20;;;24.20;1.00;;;;;;5135321;27;20200;-86
2023/05/09 10:41:44;;;;;;;3.88;3.58;;;24.10;99.90;;;;;;5135380;27;20604;-86
2023/05/09 10:44:11;;;;;;;4.43;3.90;;;23.80;99.90;;;;;;5135811;27;20658;-86
2023/05/09 10:46:38;;;;;;;4.60;4.20;;;24.00;99.90;;;;;;5135547;27;20235;-86
2023/05/09 10:49:06;;;;;;;4.97;4.47;;;24.40;99.90;;;;;;5134823;27;20603;-86
2023/05/09 10:51:33;;;;;;;6.13;4.30;;;24.50;23.50;;;;;;5134824;27;20252;-86
2023/05/09 10:54:01;;;;;;;5.72;4.90;;;24.20;1.00;;;;;;5135498;27;20196;-86
2023/05/09 10:56:30;;;;;;;5.50;4.97;;;24.70;1.00;;;;;;5137664;27;20204;-87
2023/05/09 10:58:57;;;;;;;5.53;4.97;;;24.80;1.00;;;;;;5137135;27;20291;-85
2023/05/09 11:01:33;;;;;;;6.22;4.55;;;24.80;1.00;;;;;;5146722;27;20298;-84
2023/05/09 11:04:01;;;;;;;5.20;4.55;;;25.00;1.00;;;;;;5140185;27;20203;-85
2023/05/09 11:06:42;;;;;;;5.13;4.22;;;24.50;1.00;;;;;;5132447;27;20204;-86
2023/05/09 11:09:26;;;;;;;4.43;3.97;;;24.80;1.00;;;;;;5133618;27;20222;-86
2023/05/09 11:11:54;;;;;;;4.57;3.95;;;24.90;99.90;;;;;;5133194;27;20235;-86
2023/05/09 11:14:32;;;;;;;5.88;4.75;;;24.60;99.90;;;;;;5113918;28;20605;-87
2023/05/09 11:17:00;;;;;;;4.45;3.70;;;24.50;99.90;;;;;;5113246;28;20200;-86
2023/05/09 11:19:37;;;;;;;4.63;4.10;;;24.10;99.90;;;;;;5112946;28;20651;-86
2023/05/09 11:22:15;;;;;;;4.60;4.03;;;24.60;99.90;;;;;;5112473;28;20199;-85
2023/05/09 11:24:47;;;;;;;4.13;3.75;;;24.60;47.70;;;;;;5112720;28;20340;-86
2023/05/09 11:27:19;;;;;;;9.70;8.23;;;24.70;1.00;;;;;;5112833;28;20200;-86
2023/05/09 11:29:51;;;;;;;4.88;4.38;;;25.10;1.00;;;;;;5113302;28;20707;-86
2023/05/09 11:32:18;;;;;;;3.83;3.53;;;25.30;1.00;;;;;;5127693;27;20198;-86
2023/05/09 11:34:46;;;;;;;5.13;3.90;;;25.40;1.00;;;;;;5130764;28;20205;-86
2023/05/09 11:37:15;;;;;;;6.30;4.03;;;25.00;1.00;;;;;;5114896;28;20209;-85
2023/05/09 11:40:11;;;;;;;4.03;3.72;;;24.30;1.00;;;;;;5113022;28;20203;-85
2023/05/09 11:42:42;;;;;;;5.38;4.70;;;24.50;1.00;;;;;;5096125;28;20227;-86
2023/05/09 11:45:10;;;;;;;5.40;4.28;;;24.00;1.00;;;;;;5113234;28;20204;-85
2023/05/09 11:47:37;;;;;;;7.28;4.38;;;24.30;1.00;;;;;;5114087;27;20203;-86
2023/05/09 11:50:06;;;;;;;4.57;4.18;;;25.20;1.00;;;;;;5119928;27;20237;-87
2023/05/09 11:52:33;;;;;;;5.65;4.65;;;24.70;1.00;;;;;;5121048;27;20810;-87
2023/05/09 11:55:00;;;;;;;4.43;4.05;;;24.70;99.90;;;;;;5132010;27;20193;-86
2023/05/09 11:57:29;;;;;;;4.40;4.00;;;24.70;99.90;;;;;;5126011;27;20200;-86
2023/05/09 11:59:55;;;;;;;4.10;3.70;;;24.80;99.90;;;;;;5144856;27;20211;-84
2023/05/09 12:02:23;;;;;;;5.43;4.55;;;24.30;99.90;;;;;;5130115;27;20235;-86
2023/05/09 12:04:50;;;;;;;6.00;4.65;;;25.20;99.90;;;;;;5128701;28;20283;-86
2023/05/09 12:07:17;;;;;;;5.88;4.93;;;25.50;99.90;;;;;;5112768;28;20201;-85
2023/05/09 12:09:44;;;;;;;5.60;4.57;;;25.50;99.90;;;;;;5112623;28;20225;-86
2023/05/09 12:12:12;;;;;;;6.15;4.25;;;25.10;99.90;;;;;;5112584;28;20258;-85
2023/05/09 12:14:40;;;;;;;4.88;4.30;;;25.70;99.90;;;;;;5112671;28;20297;-86
2023/05/09 12:17:08;;;;;;;4.35;4.03;;;25.50;99.90;;;;;;5112981;28;20209;-86
2023/05/09 12:19:36;;;;;;;4.90;4.40;;;24.70;11.70;;;;;;5112718;28;20283;-86
2023/05/09 12:22:05;;;;;;;4.75;4.30;;;24.30;63.80;;;;;;5114902;28;20193;-86
2023/05/09 12:24:36;;;;;;;7.63;4.43;;;24.60;73.30;;;;;;5124395;28;20211;-86
2023/05/09 12:27:03;;;;;;;5.68;4.80;;;24.70;17.30;;;;;;5123795;27;20211;-86
2023/05/09 12:29:31;;;;;;;6.30;4.40;;;24.40;1.00;;;;;;5121337;28;20597;-86
2023/05/09 12:31:59;;;;;;;6.07;4.70;;;24.50;14.60;;;;;;5119319;27;20664;-86
2023/05/09 12:34:26;;;;;;;4.90;4.40;;;24.40;1.00;;;;;;5120046;27;20207;-86
2023/05/09 12:37:02;;;;;;;5.63;4.60;;;24.30;1.00;;;;;;5123277;27;20200;-85
2023/05/09 12:39:29;;;;;;;5.70;5.15;;;24.20;1.00;;;;;;5127421;27;20236;-87
2023/05/09 12:41:56;;;;;;;5.75;4.75;;;23.70;26.10;;;;;;5127307;27;20236;-87
2023/05/09 12:44:27;;;;;;;8.30;5.20;;;23.80;1.00;;;;;;5124898;27;20295;-88
2023/05/09 12:46:55;;;;;;;5.55;4.20;;;23.40;30.60;;;;;;5126950;27;20199;-86
2023/05/09 12:49:24;;;;;;;5.13;4.60;;;23.00;1.00;;;;;;5148925;27;20230;-86
2023/05/09 12:51:52;;;;;;;5.22;4.70;;;23.90;1.00;;;;;;5131758;27;20212;-86
2023/05/09 12:54:23;;;;;;;5.07;4.53;;;24.80;1.00;;;;;;5137347;27;20196;-86
2023/05/09 12:56:52;;;;;;;6.57;4.63;;;25.00;1.00;;;;;;5116312;28;20196;-86
2023/05/09 12:59:29;;;;;;;5.35;4.60;;;24.70;1.00;;;;;;5114949;28;20193;-85
2023/05/09 13:01:57;;;;;;;5.40;4.70;;;24.20;1.00;;;;;;5115823;28;20303;-87
2023/05/09 13:04:26;;;;;;;5.78;4.90;;;23.60;1.00;;;;;;5114014;28;20212;-86
2023/05/09 13:06:54;;;;;;;7.13;4.70;;;23.50;1.00;;;;;;5115367;28;20711;-86
2023/05/09 13:09:22;;;;;;;5.47;4.70;;;24.40;1.00;;;;;;5115049;28;20201;-86
2023/05/09 13:11:51;;;;;;;5.57;5.07;;;24.60;1.00;;;;;;5115624;28;20235;-86
2023/05/09 13:14:22;;;;;;;8.35;4.95;;;24.40;1.00;;;;;;5115250;28;20212;-86
2023/05/09 13:16:51;;;;;;;7.10;4.75;;;24.20;1.00;;;;;;5114359;28;20207;-86
2023/05/09 13:19:18;;;;;;;7.57;4.70;;;24.40;1.00;;;;;;5114697;28;20212;-86
2023/05/09 13:21:47;;;;;;;5.88;4.70;;;24.20;1.00;;;;;;5131868;27;20239;-85
2023/05/09 13:24:14;;;;;;;5.20;4.45;;;23.70;1.00;;;;;;5137651;27;20197;-86
2023/05/09 13:26:41;;;;;;;4.97;4.43;;;23.70;1.00;;;;;;5121111;27;20675;-85
2023/05/09 13:29:07;;;;;;;5.28;4.50;;;23.80;1.00;;;;;;5117301;28;20588;-85
2023/05/09 13:31:39;;;;;;;4.90;4.38;;;23.60;1.00;;;;;;5114816;28;20311;-86
2023/05/09 13:34:06;;;;;;;4.80;4.38;;;23.80;1.00;;;;;;5115099;28;20204;-86
2023/05/09 13:36:33;;;;;;;6.22;4.38;;;23.80;1.00;;;;;;5115448;28;20205;-86
2023/05/09 13:39:01;;;;;;;5.85;4.50;;;23.60;1.00;;;;;;5119865;27;20272;-86
2023/05/09 13:41:30;;;;;;;8.23;4.80;;;23.50;1.00;;;;;;5124026;27;20208;-86
2023/05/09 13:43:57;;;;;;;5.97;4.63;;;23.50;1.00;;;;;;5126447;27;20304;-85
2023/05/09 13:46:27;;;;;;;5.30;4.68;;;23.10;1.00;;;;;;5131593;27;20211;-86
2023/05/09 13:48:54;;;;;;;6.32;4.90;;;23.30;1.00;;;;;;5117037;28;20215;-86
2023/05/09 13:51:22;;;;;;;5.72;5.18;;;23.10;1.00;;;;;;5123899;27;20694;-85
2023/05/09 13:53:49;;;;;;;5.78;5.00;;;22.90;1.00;;;;;;5116801;27;20209;-86
2023/05/09 13:56:17;;;;;;;6.55;5.68;;;23.30;1.00;;;;;;5125220;27;20223;-85
2023/05/09 13:58:45;;;;;;;8.40;6.30;;;23.40;1.00;;;;;;5127932;27;20675;-86
2023/05/09 14:01:12;;;;;;;8.50;4.82;;;23.30;1.00;;;;;;5130787;27;20759;-85
2023/05/09 14:03:39;;;;;;;5.15;4.55;;;23.50;1.00;;;;;;5134716;27;20196;-85
2023/05/09 14:06:08;;;;;;;6.43;4.80;;;23.30;1.00;;;;;;5122361;27;20204;-85
2023/05/09 14:08:34;;;;;;;8.40;5.28;;;23.60;1.00;;;;;;5128577;27;20235;-85
2023/05/09 14:11:01;;;;;;;8.15;5.30;;;23.50;1.00;;;;;;5121380;27;20228;-86